Time;durP1;ratioP1;P1;durP2;ratioP2;P2;SDS_P1;SDS_P2;PMS_P1;PMS_P2;Temp;Humidity;BMP_temperature;BMP_pressure;BME280_temperature;BME280_humidity;BME280_pressure;Samples;Min_cycle;Max_cycle;Signal;HPM_P1;HPM_P2
2022/08/22 00:01:17;;;;;;;;;7.20;6.80;;;;;24.38;46.48;100889.72;2071398;28;47984;-53
2022/08/22 00:02:35;;;;;;;;;4.75;4.75;;;;;24.35;46.28;100890.81;2061554;28;45946;-53
2022/08/22 00:03:50;;;;;;;;;7.40;5.00;;;;;24.34;46.59;100893.66;2064423;28;47729;-49
2022/08/22 00:05:14;;;;;;;;;9.00;7.25;;;;;24.32;46.54;100892.91;2070235;28;47087;-52
2022/08/22 00:06:24;;;;;;;;;6.60;6.60;;;;;24.31;46.70;100897.47;2070192;28;47575;-54
2022/08/22 00:07:47;;;;;;;;;6.80;6.00;;;;;24.32;46.48;100896.47;2071662;28;47785;-50
2022/08/22 00:09:12;;;;;;;;;5.25;5.25;;;;;24.32;46.71;100891.06;2046812;28;47499;-52
2022/08/22 00:10:20;;;;;;;;;4.75;4.75;;;;;24.32;46.75;100896.47;2047022;28;47929;-52
2022/08/22 00:11:30;;;;;;;;;5.25;5.25;;;;;24.31;46.67;100897.47;2037928;28;47887;-53
2022/08/22 00:12:48;;;;;;;;;8.00;6.60;;;;;24.31;46.59;100893.88;2045172;28;47125;-51
2022/08/22 00:14:13;;;;;;;;;4.80;4.80;;;;;24.29;46.56;100888.56;2047218;28;47589;-53
2022/08/22 00:15:23;;;;;;;;;7.00;5.60;;;;;24.29;46.52;100888.56;2068088;28;47725;-49
2022/08/22 00:16:29;;;;;;;;;6.00;6.00;;;;;24.28;46.61;100884.13;2070307;28;47754;-52
2022/08/22 00:17:55;;;;;;;;;6.00;5.20;;;;;24.27;46.60;100881.53;2078549;28;47777;-53
2022/08/22 00:19:23;;;;;;;;;4.60;4.00;;;;;24.26;46.79;100875.19;2073800;28;47465;-53
2022/08/22 00:20:37;;;;;;;;;5.60;5.00;;;;;24.26;46.95;100877.91;2079645;28;47612;-53
2022/08/22 00:21:49;;;;;;;;;5.40;5.00;;;;;24.27;46.84;100873.38;2078882;28;47696;-54
2022/08/22 00:22:57;;;;;;;;;6.20;5.80;;;;;24.30;46.80;100875.88;2078576;28;47565;-52
2022/08/22 00:24:19;;;;;;;;;5.40;5.20;;;;;24.29;46.65;100866.84;2080240;28;47933;-51
2022/08/22 00:25:41;;;;;;;;;0.00;0.00;;;;;24.31;46.69;100867.63;2080845;28;47459;-51
2022/08/22 00:27:16;;;;;;;;;7.00;5.60;;;;;24.32;46.74;100863.06;2080684;28;48157;-53
2022/08/22 00:28:38;;;;;;;;;9.00;6.00;;;;;24.31;46.84;100859.50;2032272;28;47617;-52
2022/08/22 00:30:03;;;;;;;;;7.80;7.80;;;;;24.29;46.70;100857.84;2032149;28;48133;-54
2022/08/22 00:31:25;;;;;;;;;5.75;4.50;;;;;24.29;46.91;100857.84;2023973;29;47647;-52
2022/08/22 00:32:35;;;;;;;;;8.00;6.00;;;;;24.31;46.52;100858.63;2018768;29;47916;-52
2022/08/22 00:33:51;;;;;;;;;4.25;3.50;;;;;24.32;46.83;100849.50;2030658;28;47843;-53
2022/08/22 00:35:00;;;;;;;;;4.00;4.00;;;;;24.33;46.56;100848.53;2032126;28;47715;-55
2022/08/22 00:36:08;;;;;;;;;7.00;6.50;;;;;24.35;46.77;100849.25;2031297;28;47593;-52
2022/08/22 00:37:19;;;;;;;;;5.20;5.20;;;;;24.36;46.77;100851.00;2031717;29;47135;-52
2022/08/22 00:38:29;;;;;;;;;5.00;5.00;;;;;24.37;46.81;100852.72;2032168;28;47773;-53
2022/08/22 00:39:51;;;;;;;;;5.60;5.60;;;;;24.39;46.78;100855.31;2024510;29;47362;-54
2022/08/22 00:41:23;;;;;;;;;7.00;5.20;;;;;24.40;46.79;100862.50;2026816;28;48144;-54
2022/08/22 00:42:43;;;;;;;;;6.80;6.80;;;;;24.38;46.66;100851.72;2031312;29;47419;-51
2022/08/22 00:44:11;;;;;;;;;7.00;5.20;;;;;24.38;46.68;100856.28;2031489;29;47306;-56
2022/08/22 00:45:29;;;;;;;;;8.00;6.00;;;;;24.37;46.23;100847.28;2023506;29;47706;-53
2022/08/22 00:47:04;;;;;;;;;4.20;4.20;;;;;24.36;46.21;100851.00;2034263;28;47635;-54
2022/08/22 00:48:47;;;;;;;;;4.40;3.00;;;;;24.35;46.36;100860.13;2047982;28;47255;-56
2022/08/22 00:50:18;;;;;;;;;4.20;4.20;;;;;24.33;46.22;100859.38;2029618;29;47346;-52
2022/08/22 00:51:40;;;;;;;;;5.20;5.20;;;;;24.33;46.46;100860.22;2032199;28;47834;-51
2022/08/22 00:52:40;;;;;;;;;5.60;4.60;;;;;24.33;46.29;100856.66;2031935;28;47627;-52
2022/08/22 00:53:46;;;;;;;;;5.00;5.00;;;;;24.32;46.29;100846.78;2031511;29;47168;-50
2022/08/22 00:55:11;;;;;;;;;6.60;4.00;;;;;24.33;46.73;100851.22;2031174;29;47512;-50
2022/08/22 00:56:37;;;;;;;;;3.00;3.00;;;;;24.33;46.49;100846.66;2031166;29;48003;-54
2022/08/22 00:58:07;;;;;;;;;4.60;4.60;;;;;24.33;46.58;100860.22;2032924;28;47798;-49
2022/08/22 00:59:25;;;;;;;;;5.60;4.40;;;;;24.33;46.46;100860.22;2008993;29;47886;-53
2022/08/22 01:00:30;;;;;;;;;5.00;5.00;;;;;24.32;46.98;100858.50;2007660;29;47746;-51
2022/08/22 01:01:35;;;;;;;;;5.00;4.20;;;;;24.32;46.48;100857.66;2008290;29;47138;-50
2022/08/22 01:03:07;;;;;;;;;5.80;5.20;;;;;24.31;46.72;100858.63;2008889;29;47645;-47
2022/08/22 01:04:30;;;;;;;;;5.60;5.00;;;;;24.32;46.44;100865.78;2008449;29;47580;-54
2022/08/22 01:05:39;;;;;;;;;4.40;3.40;;;;;24.31;46.17;100861.34;2019599;28;48160;-51
2022/08/22 01:07:16;;;;;;;;;7.00;7.00;;;;;24.29;46.26;100858.72;2047504;28;47803;-52
2022/08/22 01:08:28;;;;;;;;;6.00;5.60;;;;;24.29;46.37;100866.84;2047084;28;47474;-52
2022/08/22 01:09:53;;;;;;;;;4.40;4.40;;;;;24.28;46.40;100865.13;2047832;28;47719;-50
2022/08/22 01:11:08;;;;;;;;;5.80;5.80;;;;;24.28;46.32;100867.84;2047819;28;48159;-49
2022/08/22 01:12:20;;;;;;;;;6.00;6.00;;;;;24.27;46.23;100870.66;2048301;28;48276;-50
2022/08/22 01:13:45;;;;;;;;;6.00;6.00;;;;;24.27;46.57;100874.25;2047119;28;47285;-52
2022/08/22 01:15:04;;;;;;;;;4.80;4.80;;;;;24.26;46.62;100877.91;2047499;28;47112;-51
2022/08/22 01:16:39;;;;;;;;;5.00;5.00;;;;;24.26;46.45;100877.03;2054311;28;47988;-52
2022/08/22 01:17:46;;;;;;;;;7.80;5.00;;;;;24.25;46.71;100875.31;2045832;28;47456;-50
2022/08/22 01:18:55;;;;;;;;;5.00;5.00;;;;;24.25;46.04;100878.91;2048050;28;48242;-52
2022/08/22 01:20:14;;;;;;;;;5.60;5.20;;;;;24.25;46.25;100872.59;2047284;28;47865;-50
2022/08/22 01:21:23;;;;;;;;;7.40;7.20;;;;;24.23;46.37;100871.88;2047127;28;47650;-52
2022/08/22 01:22:59;;;;;;;;;6.40;6.40;;;;;24.23;46.58;100871.88;2039603;28;47768;-54
2022/08/22 01:24:21;;;;;;;;;4.20;4.00;;;;;24.24;46.42;100873.59;2044825;28;47666;-50
2022/08/22 01:25:45;;;;;;;;;3.40;2.20;;;;;24.24;46.36;100868.16;2048168;28;47898;-51
2022/08/22 01:26:58;;;;;;;;;5.60;4.60;;;;;24.24;46.10;100869.03;2063971;28;47657;-50
2022/08/22 01:28:25;;;;;;;;;5.00;5.00;;;;;24.23;46.23;100871.88;2079537;28;47566;-49
2022/08/22 01:29:43;;;;;;;;;5.40;5.40;;;;;24.23;46.02;100869.16;2071652;28;47268;-52
2022/08/22 01:30:46;;;;;;;;;3.00;3.00;;;;;24.22;46.28;100871.00;2073216;28;47632;-48
2022/08/22 01:32:28;;;;;;;;;3.20;3.20;;;;;24.20;45.81;100864.84;2080334;28;47906;-53
2022/08/22 01:34:07;;;;;;;;;3.20;3.20;;;;;24.20;46.18;100861.25;2047828;28;47446;-52
2022/08/22 01:35:25;;;;;;;;;3.00;3.00;;;;;24.20;45.86;100862.13;2047739;28;47611;-54
2022/08/22 01:36:43;;;;;;;;;5.60;4.40;;;;;24.19;46.01;100857.69;2047661;28;48328;-52
2022/08/22 01:38:02;;;;;;;;;4.80;4.40;;;;;24.19;45.87;100852.25;2047762;28;47269;-51
2022/08/22 01:39:02;;;;;;;;;5.40;4.60;;;;;24.18;46.03;100855.09;2049424;28;47991;-53
2022/08/22 01:40:28;;;;;;;;;4.33;4.33;;;;;24.17;45.75;100853.38;2054665;28;47649;-50
2022/08/22 01:41:56;;;;;;;;;6.00;4.25;;;;;24.14;45.84;100849.06;2055240;28;46831;-52
2022/08/22 01:43:27;;;;;;;;;2.75;2.75;;;;;24.11;45.66;100843.84;2052306;28;47807;-52
2022/08/22 01:44:55;;;;;;;;;3.00;3.00;;;;;24.10;45.94;100849.38;2050248;28;47551;-52
2022/08/22 01:46:04;;;;;;;;;2.75;2.75;;;;;24.07;45.71;100848.63;2046809;28;47762;-52
2022/08/22 01:47:15;;;;;;;;;4.40;3.60;;;;;24.07;46.04;100850.47;2047750;28;47948;-49
2022/08/22 01:48:29;;;;;;;;;6.60;6.60;;;;;24.06;46.15;100844.19;2055782;28;47561;-54
2022/08/22 01:49:42;;;;;;;;;5.00;4.00;;;;;24.07;45.82;100843.22;2047432;28;47529;-53
2022/08/22 01:51:13;;;;;;;;;3.00;2.00;;;;;24.07;45.92;100836.94;2041324;28;47638;-55
2022/08/22 01:52:22;;;;;;;;;3.00;3.00;;;;;24.06;45.58;100830.63;2051234;28;47668;-51
2022/08/22 01:53:35;;;;;;;;;3.80;3.80;;;;;24.07;45.55;100839.63;2054775;28;47942;-51
2022/08/22 01:54:53;;;;;;;;;4.80;4.00;;;;;24.05;45.88;100838.91;2053041;28;47461;-52
2022/08/22 01:56:08;;;;;;;;;3.00;3.00;;;;;24.05;45.95;100841.59;2046674;28;47159;-53
2022/08/22 01:57:09;;;;;;;;;3.80;3.00;;;;;24.04;46.05;100839.88;2048543;28;49160;-51
2022/08/22 01:58:23;;;;;;;;;4.20;4.20;;;;;24.04;45.66;100843.44;2054678;28;47513;-53
2022/08/22 01:59:35;;;;;;;;;2.60;2.60;;;;;24.04;45.83;100839.88;2054839;28;48013;-51
2022/08/22 02:01:01;;;;;;;;;4.60;4.60;;;;;24.01;45.99;100842.78;2056091;28;47578;-51
2022/08/22 02:02:16;;;;;;;;;3.00;3.00;;;;;24.00;45.63;100849.19;2054823;28;47460;-53
2022/08/22 02:03:50;;;;;;;;;4.00;3.80;;;;;23.98;45.74;100846.63;2046619;28;47166;-54
2022/08/22 02:04:59;;;;;;;;;4.20;3.20;;;;;24.00;46.19;100844.66;2051097;28;47990;-53
2022/08/22 02:06:12;;;;;;;;;4.20;2.60;;;;;24.00;46.04;100850.06;2031325;28;47818;-52
2022/08/22 02:07:20;;;;;;;;;2.20;2.20;;;;;23.99;45.99;100847.47;2036722;28;47971;-50
2022/08/22 02:08:46;;;;;;;;;6.00;4.20;;;;;24.01;45.85;100848.22;2085119;28;47942;-56
2022/08/22 02:10:20;;;;;;;;;5.20;5.20;;;;;24.00;45.72;100852.78;2096086;28;47291;-54
2022/08/22 02:11:47;;;;;;;;;4.00;3.20;;;;;23.97;45.60;100850.31;2101662;28;47145;-53
2022/08/22 02:13:18;;;;;;;;;6.00;4.80;;;;;23.96;46.08;100850.44;2113660;27;47545;-54
2022/08/22 02:14:32;;;;;;;;;4.75;4.75;;;;;23.96;45.86;100853.13;2106905;27;47724;-53
2022/08/22 02:15:38;;;;;;;;;3.00;3.00;;;;;23.95;45.93;100854.13;2108713;27;47603;-53
2022/08/22 02:16:46;;;;;;;;;4.00;4.00;;;;;23.94;46.21;100855.97;2113561;27;47580;-52
2022/08/22 02:18:05;;;;;;;;;2.20;2.20;;;;;23.94;46.01;100855.09;2104860;28;47160;-51
2022/08/22 02:19:14;;;;;;;;;3.80;3.80;;;;;23.94;45.94;100855.09;2104639;28;47145;-49
2022/08/22 02:20:36;;;;;;;;;4.50;3.50;;;;;23.95;46.09;100859.53;2104897;28;47733;-55
2022/08/22 02:21:39;;;;;;;;;4.40;3.40;;;;;23.94;46.08;100852.41;2106080;27;48097;-53
2022/08/22 02:22:56;;;;;;;;;2.00;2.00;;;;;23.93;45.92;100848.81;2096048;28;47653;-52
2022/08/22 02:24:01;;;;;;;;;3.80;3.00;;;;;23.94;45.92;100852.41;2105640;27;47850;-50
2022/08/22 02:25:12;;;;;;;;;2.40;2.40;;;;;23.92;45.79;100852.50;2111992;27;47483;-53
2022/08/22 02:26:22;;;;;;;;;5.60;4.00;;;;;23.93;46.05;100853.38;2105223;28;47485;-53
2022/08/22 02:27:56;;;;;;;;;4.25;4.25;;;;;23.93;46.03;100848.81;2105987;27;47686;-54
2022/08/22 02:29:08;;;;;;;;;3.00;3.00;;;;;23.94;45.88;100850.53;2096970;28;47318;-52
2022/08/22 02:30:14;;;;;;;;;3.40;3.40;;;;;23.93;45.70;100848.81;2098570;28;48063;-54
2022/08/22 02:31:22;;;;;;;;;3.00;3.00;;;;;23.92;45.75;100847.09;2083601;28;47481;-54
2022/08/22 02:32:44;;;;;;;;;3.40;3.40;;;;;23.92;45.53;100849.81;2090273;28;48008;-55
2022/08/22 02:33:47;;;;;;;;;3.00;3.00;;;;;23.92;45.77;100847.09;2106123;27;47587;-54
2022/08/22 02:34:58;;;;;;;;;3.00;3.00;;;;;23.91;45.76;100839.94;2108175;27;47712;-51
2022/08/22 02:36:06;;;;;;;;;4.20;4.20;;;;;23.90;45.80;100846.34;2113652;27;47932;-52
2022/08/22 02:37:28;;;;;;;;;2.80;2.00;;;;;23.90;45.71;100842.78;2096711;28;48000;-54
2022/08/22 02:38:37;;;;;;;;;2.00;2.00;;;;;23.89;45.52;100841.03;2111023;27;48088;-51
2022/08/22 02:39:48;;;;;;;;;2.80;2.80;;;;;23.88;45.70;100845.56;2110851;27;47620;-52
2022/08/22 02:41:12;;;;;;;;;2.60;2.40;;;;;23.88;45.56;100844.72;2105186;28;47647;-52
2022/08/22 02:42:25;;;;;;;;;3.80;3.60;;;;;23.87;45.56;100851.97;2096752;28;47616;-54
2022/08/22 02:43:53;;;;;;;;;3.40;3.40;;;;;23.85;45.63;100859.34;2112811;27;47769;-52
2022/08/22 02:44:58;;;;;;;;;3.40;3.40;;;;;23.84;46.07;100857.63;2107173;27;47616;-52
2022/08/22 02:46:04;;;;;;;;;2.20;2.20;;;;;23.83;45.66;100853.19;2105748;27;46376;-54
2022/08/22 02:47:14;;;;;;;;;3.80;3.20;;;;;23.84;45.84;100854.06;2105027;28;47772;-53
2022/08/22 02:48:37;;;;;;;;;3.20;3.20;;;;;23.82;45.88;100851.47;2105709;27;47518;-53
2022/08/22 02:50:03;;;;;;;;;2.20;2.20;;;;;23.82;45.84;100853.31;2105666;27;47829;-52
2022/08/22 02:51:17;;;;;;;;;5.60;3.40;;;;;23.81;45.66;100854.28;2105690;27;47547;-53
2022/08/22 02:52:25;;;;;;;;;5.80;5.00;;;;;23.78;45.90;100850.84;2105624;27;47633;-50
2022/08/22 02:54:07;;;;;;;;;4.20;4.00;;;;;23.79;45.65;100849.00;2104847;28;47923;-50
2022/08/22 02:55:17;;;;;;;;;4.40;4.40;;;;;23.79;45.89;100840.88;2104834;28;47434;-54
2022/08/22 02:56:21;;;;;;;;;3.00;3.00;;;;;23.79;45.92;100838.16;2106388;27;46894;-51
2022/08/22 02:57:32;;;;;;;;;4.00;3.80;;;;;23.79;46.12;100843.56;2106005;27;46812;-51
2022/08/22 02:58:43;;;;;;;;;2.80;2.80;;;;;23.80;46.14;100844.44;2104779;28;47450;-51
2022/08/22 03:00:17;;;;;;;;;4.60;3.60;;;;;23.80;45.83;100852.56;2112492;27;47497;-52
2022/08/22 03:01:26;;;;;;;;;5.00;4.20;;;;;23.78;45.76;100848.13;2107282;27;47601;-51
2022/08/22 03:02:35;;;;;;;;;3.20;3.20;;;;;23.76;45.76;100844.69;2097079;28;47238;-51
2022/08/22 03:03:39;;;;;;;;;3.20;3.20;;;;;23.77;45.81;100845.53;2096938;28;47762;-52
2022/08/22 03:04:39;;;;;;;;;3.80;3.80;;;;;23.76;45.86;100850.09;2106068;27;47667;-50
2022/08/22 03:05:40;;;;;;;;;2.25;2.25;;;;;23.76;45.93;100846.53;2096886;28;47244;-54
2022/08/22 03:07:00;;;;;;;;;3.50;3.50;;;;;23.75;46.04;100844.75;2096216;28;46683;-51
2022/08/22 03:08:27;;;;;;;;;3.80;2.20;;;;;23.73;45.90;100834.03;2111988;27;47990;-54
2022/08/22 03:10:12;;;;;;;;;4.00;3.00;;;;;23.73;45.90;100842.16;2087565;28;47866;-54
2022/08/22 03:11:36;;;;;;;;;1.75;1.50;;;;;23.71;45.84;100838.72;2062156;28;47361;-53
2022/08/22 03:12:57;;;;;;;;;4.00;3.25;;;;;23.72;45.86;100836.88;2059785;28;47587;-51
2022/08/22 03:14:30;;;;;;;;;3.00;2.75;;;;;23.71;45.79;100845.97;2041200;28;47787;-52
2022/08/22 03:15:47;;;;;;;;;5.25;4.00;;;;;23.70;45.90;100844.25;2035564;28;45884;-54
2022/08/22 03:16:57;;;;;;;;;3.00;3.00;;;;;23.69;45.84;100847.94;2023038;29;47668;-54
2022/08/22 03:18:02;;;;;;;;;3.00;2.50;;;;;23.70;46.05;100841.53;2031869;28;46880;-52
2022/08/22 03:19:48;;;;;;;;;2.00;2.00;;;;;23.69;45.83;100837.97;2030259;29;47698;-54
2022/08/22 03:20:58;;;;;;;;;2.25;2.25;;;;;23.68;45.61;100836.25;2028099;29;47809;-52
2022/08/22 03:22:06;;;;;;;;;3.25;2.75;;;;;23.69;45.98;100845.22;2030447;29;47908;-51
2022/08/22 03:23:15;;;;;;;;;3.75;3.00;;;;;23.67;46.04;100837.22;2030284;29;47741;-53
2022/08/22 03:24:54;;;;;;;;;4.50;3.50;;;;;23.66;45.91;100843.63;2030538;29;47429;-53
2022/08/22 03:26:02;;;;;;;;;2.75;2.75;;;;;23.65;45.69;100850.03;2007014;29;47775;-52
2022/08/22 03:27:06;;;;;;;;;1.00;1.00;;;;;23.65;45.66;100849.16;2001534;29;47976;-56
2022/08/22 03:28:25;;;;;;;;;3.50;2.75;;;;;23.64;45.92;100855.56;2000603;29;47723;-52
2022/08/22 03:29:37;;;;;;;;;3.00;3.00;;;;;23.63;46.00;100853.81;1999453;29;47789;-50
2022/08/22 03:30:54;;;;;;;;;3.00;3.00;;;;;23.63;45.61;100849.28;2005017;29;47879;-53
2022/08/22 03:32:23;;;;;;;;;2.00;2.00;;;;;23.63;46.16;100846.56;1999210;29;47441;-53
2022/08/22 03:33:27;;;;;;;;;2.00;2.00;;;;;23.63;46.14;100842.97;1999226;29;47669;-50
2022/08/22 03:34:28;;;;;;;;;2.00;2.00;;;;;23.62;46.09;100841.22;1999323;29;47348;-54
2022/08/22 03:35:55;;;;;;;;;3.67;3.67;;;;;23.62;46.02;100852.06;1999167;29;47412;-52
2022/08/22 03:37:21;;;;;;;;;3.00;3.00;;;;;23.61;46.08;100842.22;1999168;29;47602;-52
2022/08/22 03:38:28;;;;;;;;;4.00;4.00;;;;;23.61;45.81;100840.38;2003738;29;47567;-51
2022/08/22 03:39:49;;;;;;;;;5.75;4.25;;;;;23.61;45.96;100843.06;2005347;29;47828;-54
2022/08/22 03:41:11;;;;;;;;;3.75;3.25;;;;;23.59;45.90;100842.34;1999246;29;48020;-50
2022/08/22 03:42:14;;;;;;;;;3.75;3.75;;;;;23.60;46.05;100840.50;1999285;29;47739;-49
2022/08/22 03:43:46;;;;;;;;;2.50;2.50;;;;;23.59;46.21;100838.75;1999402;29;47792;-52
2022/08/22 03:45:20;;;;;;;;;4.50;3.25;;;;;23.58;46.07;100834.31;1990542;29;47617;-53
2022/08/22 03:46:48;;;;;;;;;3.25;3.25;;;;;23.57;46.00;100837.97;1991734;29;47871;-50
2022/08/22 03:48:07;;;;;;;;;6.00;3.75;;;;;23.56;46.10;100831.69;1987736;29;47632;-50
2022/08/22 03:49:26;;;;;;;;;2.75;2.75;;;;;23.56;46.21;100836.25;2029327;28;47495;-51
2022/08/22 03:51:14;;;;;;;;;4.60;4.20;;;;;23.55;46.13;100835.38;2030650;29;47184;-48
2022/08/22 03:53:06;;;;;;;;;3.80;3.80;;;;;23.56;46.41;100845.25;2033432;28;47378;-52
2022/08/22 03:54:48;;;;;;;;;2.00;2.00;;;;;23.54;46.37;100832.78;2033543;28;47310;-49
2022/08/22 03:56:16;;;;;;;;;6.80;3.80;;;;;23.53;46.20;100839.19;2013272;29;47689;-52
2022/08/22 03:58:00;;;;;;;;;3.00;3.00;;;;;23.51;46.45;100833.03;2024857;28;47389;-51
2022/08/22 03:59:06;;;;;;;;;3.00;3.00;;;;;23.50;46.62;100829.44;2049858;28;47722;-51
2022/08/22 04:00:19;;;;;;;;;5.50;5.50;;;;;23.50;46.32;100834.84;2055378;28;47520;-52
2022/08/22 04:01:50;;;;;;;;;3.00;3.00;;;;;23.48;46.26;100828.69;2056800;28;47270;-49
2022/08/22 04:02:50;;;;;;;;;5.00;3.00;;;;;23.46;46.59;100828.78;2056449;28;48100;-53
2022/08/22 04:04:06;;;;;;;;;4.00;4.00;;;;;23.46;46.52;100830.63;2056771;28;47836;-49
2022/08/22 04:05:31;;;;;;;;;4.80;3.80;;;;;23.46;46.79;100825.22;2055462;28;48123;-52
2022/08/22 04:07:00;;;;;;;;;4.00;4.00;;;;;23.47;46.60;100818.81;2055548;28;47424;-51
2022/08/22 04:08:22;;;;;;;;;3.20;3.20;;;;;23.45;46.61;100824.34;2055082;28;47882;-54
2022/08/22 04:10:01;;;;;;;;;4.00;4.00;;;;;23.45;46.76;100812.66;2056637;28;47584;-52
2022/08/22 04:11:33;;;;;;;;;5.80;4.40;;;;;23.45;46.51;100820.78;2057316;28;45552;-52
2022/08/22 04:12:58;;;;;;;;;5.20;5.20;;;;;23.43;46.52;100814.63;2045439;28;48110;-53
2022/08/22 04:14:40;;;;;;;;;4.40;3.60;;;;;23.43;46.58;100822.75;2047449;28;48060;-54
2022/08/22 04:16:18;;;;;;;;;2.80;2.80;;;;;23.41;46.48;100820.16;2044182;28;47979;-53
2022/08/22 04:17:57;;;;;;;;;4.00;4.00;;;;;23.41;46.87;100816.59;2036361;28;47987;-51
2022/08/22 04:19:15;;;;;;;;;5.00;5.00;;;;;23.40;46.73;100821.13;2044193;28;48329;-51
2022/08/22 04:20:37;;;;;;;;;7.20;4.40;;;;;23.39;46.51;100822.13;2047221;28;47799;-53
2022/08/22 04:22:10;;;;;;;;;3.60;3.60;;;;;23.39;46.71;100822.13;2047458;28;48069;-51
2022/08/22 04:23:23;;;;;;;;;4.00;4.00;;;;;23.40;46.85;100825.69;2024257;29;47968;-52
2022/08/22 04:24:36;;;;;;;;;2.25;2.25;;;;;23.40;46.91;100829.25;2023439;29;47615;-53
2022/08/22 04:25:41;;;;;;;;;5.00;3.00;;;;;23.39;46.52;100818.53;2030711;29;47789;-50
2022/08/22 04:26:50;;;;;;;;;3.40;3.00;;;;;23.39;46.82;100824.81;2030537;29;47980;-53
2022/08/22 04:28:05;;;;;;;;;3.40;3.40;;;;;23.38;46.76;100823.09;2020623;29;47065;-52
2022/08/22 04:29:18;;;;;;;;;3.80;3.80;;;;;23.38;47.00;100819.53;2023338;29;47737;-50
2022/08/22 04:30:30;;;;;;;;;3.00;3.00;;;;;23.37;46.65;100820.47;2025517;29;47646;-50
2022/08/22 04:31:45;;;;;;;;;3.20;3.20;;;;;23.36;46.78;100816.03;2024660;29;47633;-52
2022/08/22 04:32:55;;;;;;;;;2.40;2.40;;;;;23.37;46.87;100817.75;2031296;29;47998;-53
2022/08/22 04:34:05;;;;;;;;;3.60;3.60;;;;;23.37;46.89;100823.19;2043465;28;48005;-50
2022/08/22 04:35:15;;;;;;;;;6.20;5.60;;;;;23.38;46.95;100824.94;2051411;28;47728;-53
2022/08/22 04:36:33;;;;;;;;;4.00;3.00;;;;;23.38;47.08;100822.22;2053407;28;47544;-55
2022/08/22 04:37:52;;;;;;;;;3.00;3.00;;;;;23.36;47.11;100825.03;2046921;28;47618;-50
2022/08/22 04:39:08;;;;;;;;;4.40;3.60;;;;;23.36;46.90;100821.44;2039594;28;47493;-54
2022/08/22 04:40:20;;;;;;;;;5.60;4.00;;;;;23.37;46.96;100831.31;2046124;28;47996;-53
2022/08/22 04:41:32;;;;;;;;;4.80;4.80;;;;;23.35;46.96;100830.56;2047460;28;47484;-52
2022/08/22 04:42:46;;;;;;;;;4.80;4.80;;;;;23.33;46.97;100818.97;2047160;28;47982;-50
2022/08/22 04:44:01;;;;;;;;;3.60;3.60;;;;;23.33;47.25;100827.97;2039179;28;47470;-50
2022/08/22 04:45:42;;;;;;;;;3.40;3.40;;;;;23.33;47.06;100824.41;2042059;28;47211;-53
2022/08/22 04:46:57;;;;;;;;;4.50;4.00;;;;;23.34;47.05;100826.13;2030150;29;47962;-55
2022/08/22 04:48:17;;;;;;;;;5.20;5.20;;;;;23.33;47.11;100816.28;2030591;29;47859;-53
2022/08/22 04:49:25;;;;;;;;;4.80;3.60;;;;;23.33;47.14;100822.56;2030613;29;47644;-52
2022/08/22 04:50:38;;;;;;;;;5.60;4.40;;;;;23.33;47.22;100827.09;2031392;29;47372;-52
2022/08/22 04:51:47;;;;;;;;;6.20;4.20;;;;;23.33;47.20;100818.97;2030696;29;47632;-52
2022/08/22 04:52:47;;;;;;;;;5.00;5.00;;;;;23.32;47.21;100826.25;2030727;29;47509;-52
2022/08/22 04:53:48;;;;;;;;;4.00;4.00;;;;;23.31;47.15;100826.34;2034654;28;47819;-50
2022/08/22 04:55:09;;;;;;;;;3.75;3.75;;;;;23.31;47.22;100823.66;2031025;28;47411;-50
2022/08/22 04:56:36;;;;;;;;;3.50;3.50;;;;;23.31;47.12;100834.47;2035464;28;47513;-51
2022/08/22 04:57:36;;;;;;;;;3.50;2.75;;;;;23.30;47.33;100836.31;2035933;28;48187;-51
2022/08/22 04:58:54;;;;;;;;;3.67;3.67;;;;;23.31;47.26;100845.31;2031480;29;47545;-52
2022/08/22 05:00:06;;;;;;;;;7.20;6.20;;;;;23.30;47.10;100844.44;2030376;29;47585;-52
2022/08/22 05:01:26;;;;;;;;;1.75;1.75;;;;;23.31;47.23;100845.31;2054454;28;47966;-53
2022/08/22 05:02:26;;;;;;;;;7.00;4.20;;;;;23.31;47.44;100842.59;2064313;28;47561;-51
2022/08/22 05:03:30;;;;;;;;;4.25;4.25;;;;;23.32;47.20;100847.03;2063252;28;47533;-52
2022/08/22 05:04:55;;;;;;;;;3.20;3.20;;;;;23.31;47.36;100839.91;2064405;28;47230;-58
2022/08/22 05:05:59;;;;;;;;;2.80;2.80;;;;;23.30;47.27;100838.16;2068643;28;47649;-49
2022/08/22 05:07:18;;;;;;;;;6.80;5.40;;;;;23.30;47.22;100839.03;2071647;28;47600;-53
2022/08/22 05:08:25;;;;;;;;;3.25;2.75;;;;;23.30;47.49;100840.88;2063438;28;48049;-52
2022/08/22 05:09:29;;;;;;;;;3.25;3.25;;;;;23.28;47.33;100841.00;2067880;28;47801;-55
2022/08/22 05:10:36;;;;;;;;;3.00;3.00;;;;;23.28;47.06;100846.41;2068322;28;47698;-48
2022/08/22 05:11:39;;;;;;;;;7.25;6.75;;;;;23.29;47.32;100847.28;2054929;28;47859;-50
2022/08/22 05:12:46;;;;;;;;;2.75;2.00;;;;;23.29;47.41;100848.13;2057679;28;47553;-50
2022/08/22 05:14:16;;;;;;;;;3.00;3.00;;;;;23.31;47.05;100859.72;2065525;28;47786;-49
2022/08/22 05:15:21;;;;;;;;;3.25;3.00;;;;;23.32;47.27;100860.56;2065274;28;47628;-50
2022/08/22 05:16:33;;;;;;;;;7.00;6.75;;;;;23.33;47.67;100865.03;2071519;28;47578;-51
2022/08/22 05:17:35;;;;;;;;;4.00;4.00;;;;;23.33;47.42;100863.16;2066710;28;48054;-50
2022/08/22 05:18:43;;;;;;;;;2.75;2.75;;;;;23.34;47.46;100862.19;2070285;28;47572;-54
2022/08/22 05:19:50;;;;;;;;;7.75;5.00;;;;;23.35;47.26;100860.34;2054977;28;48019;-51
2022/08/22 05:20:53;;;;;;;;;6.25;6.25;;;;;23.35;47.39;100857.63;2057658;28;47888;-54
2022/08/22 05:21:55;;;;;;;;;4.00;4.00;;;;;23.36;47.16;100862.94;2065132;28;47702;-52
2022/08/22 05:23:02;;;;;;;;;3.75;2.25;;;;;23.35;47.10;100853.09;2063469;28;47504;-54
2022/08/22 05:24:08;;;;;;;;;3.00;3.00;;;;;23.35;47.21;100855.78;2077195;28;47754;-52
2022/08/22 05:25:17;;;;;;;;;3.75;3.25;;;;;23.34;47.12;100862.19;2108000;27;47376;-54
2022/08/22 05:26:19;;;;;;;;;5.50;4.50;;;;;23.35;47.17;100857.63;2106114;27;47774;-50
2022/08/22 05:27:24;;;;;;;;;3.50;3.50;;;;;23.34;47.50;100851.34;2106975;27;47944;-51
2022/08/22 05:28:33;;;;;;;;;3.75;3.00;;;;;23.35;47.32;100854.94;2099007;28;47391;-53
2022/08/22 05:29:38;;;;;;;;;5.00;4.25;;;;;23.34;47.30;100850.50;2098772;27;47595;-53
2022/08/22 05:30:41;;;;;;;;;5.00;5.00;;;;;23.33;47.12;100848.78;2112107;27;47712;-53
2022/08/22 05:32:02;;;;;;;;;5.50;5.50;;;;;23.32;47.12;100853.31;2108359;27;47788;-56
2022/08/22 05:33:25;;;;;;;;;3.00;3.00;;;;;23.32;47.16;100860.56;2107728;27;47920;-53
2022/08/22 05:34:35;;;;;;;;;3.50;2.25;;;;;23.30;47.27;100860.69;2106667;27;47199;-52
2022/08/22 05:35:40;;;;;;;;;3.00;2.00;;;;;23.31;47.40;100866.97;2096902;28;47664;-53
2022/08/22 05:36:54;;;;;;;;;4.25;4.25;;;;;23.31;47.43;100877.81;2106347;27;47829;-50
2022/08/22 05:37:55;;;;;;;;;3.25;2.50;;;;;23.30;47.08;100878.78;2098771;28;47498;-54
2022/08/22 05:39:01;;;;;;;;;3.50;3.50;;;;;23.30;47.26;100874.22;2096991;28;47565;-52
2022/08/22 05:40:02;;;;;;;;;3.75;3.75;;;;;23.30;47.10;100885.06;2098697;28;47271;-54
2022/08/22 05:41:09;;;;;;;;;3.25;3.25;;;;;23.31;47.70;100877.81;2098623;28;47508;-52
2022/08/22 05:42:21;;;;;;;;;4.00;4.00;;;;;23.31;47.59;100877.81;2096303;28;47148;-50
2022/08/22 05:43:24;;;;;;;;;3.00;3.00;;;;;23.32;47.48;100876.81;2100305;28;47911;-52
2022/08/22 05:44:29;;;;;;;;;7.00;5.50;;;;;23.33;47.38;100881.25;2107472;27;47692;-53
2022/08/22 05:45:33;;;;;;;;;4.50;4.00;;;;;23.34;47.34;100883.84;2105382;28;47730;-53
2022/08/22 05:46:41;;;;;;;;;4.25;4.25;;;;;23.35;47.41;100888.28;2107724;27;47408;-53
2022/08/22 05:47:48;;;;;;;;;3.25;3.25;;;;;23.35;47.33;100888.28;2108074;27;47844;-53
2022/08/22 05:48:59;;;;;;;;;8.25;6.50;;;;;23.36;47.31;100876.47;2105100;27;48172;-52
2022/08/22 05:50:25;;;;;;;;;5.50;4.25;;;;;23.37;47.54;100880.91;2106137;27;47741;-54
2022/08/22 05:51:56;;;;;;;;;4.40;4.00;;;;;23.38;47.53;100881.81;2063261;28;47258;-52
2022/08/22 05:53:14;;;;;;;;;4.00;4.00;;;;;23.38;47.31;100879.09;2061470;28;48023;-50
2022/08/22 05:54:28;;;;;;;;;3.25;3.25;;;;;23.38;47.17;100874.56;2061552;28;47669;-52
2022/08/22 05:55:47;;;;;;;;;6.60;4.60;;;;;23.39;47.38;100878.13;2062896;28;47591;-53
2022/08/22 05:56:56;;;;;;;;;5.80;5.80;;;;;23.38;47.26;100871.84;2062652;28;47977;-52